sensor_id;sensor_type;location;lat;lon;timestamp;P1;durP1;ratioP1;P2;durP2;ratioP2
60243;SDS011;46106;51.468;5.814;2023-04-25T00:02:02;19.65;;;3.90;;
60243;SDS011;46106;51.468;5.814;2023-04-25T00:04:28;16.52;;;3.90;;
60243;SDS011;46106;51.468;5.814;2023-04-25T00:06:54;19.92;;;3.30;;
60243;SDS011;46106;51.468;5.814;2023-04-25T00:09:21;8.35;;;3.30;;
60243;SDS011;46106;51.468;5.814;2023-04-25T00:11:47;17.60;;;4.40;;
60243;SDS011;46106;51.468;5.814;2023-04-25T00:14:12;17.27;;;3.88;;
60243;SDS011;46106;51.468;5.814;2023-04-25T00:16:38;15.77;;;3.42;;
60243;SDS011;46106;51.468;5.814;2023-04-25T00:19:09;12.45;;;3.33;;
60243;SDS011;46106;51.468;5.814;2023-04-25T00:21:34;20.17;;;3.42;;
60243;SDS011;46106;51.468;5.814;2023-04-25T00:24:00;7.78;;;3.05;;
60243;SDS011;46106;51.468;5.814;2023-04-25T00:26:26;11.68;;;3.15;;
60243;SDS011;46106;51.468;5.814;2023-04-25T00:28:52;20.88;;;3.80;;
60243;SDS011;46106;51.468;5.814;2023-04-25T00:31:17;14.73;;;3.67;;
60243;SDS011;46106;51.468;5.814;2023-04-25T00:33:43;19.80;;;4.13;;
60243;SDS011;46106;51.468;5.814;2023-04-25T00:36:08;23.90;;;4.53;;
60243;SDS011;46106;51.468;5.814;2023-04-25T00:38:34;14.88;;;3.22;;
60243;SDS011;46106;51.468;5.814;2023-04-25T00:41:00;22.50;;;4.38;;
60243;SDS011;46106;51.468;5.814;2023-04-25T00:43:26;7.22;;;2.90;;
60243;SDS011;46106;51.468;5.814;2023-04-25T00:45:53;15.48;;;3.65;;
60243;SDS011;46106;51.468;5.814;2023-04-25T00:48:20;20.23;;;3.78;;
60243;SDS011;46106;51.468;5.814;2023-04-25T00:50:50;20.02;;;3.78;;
60243;SDS011;46106;51.468;5.814;2023-04-25T00:53:18;14.40;;;3.60;;
60243;SDS011;46106;51.468;5.814;2023-04-25T00:55:43;11.30;;;4.03;;
60243;SDS011;46106;51.468;5.814;2023-04-25T00:58:09;20.98;;;4.50;;
60243;SDS011;46106;51.468;5.814;2023-04-25T01:00:35;18.17;;;3.75;;
60243;SDS011;46106;51.468;5.814;2023-04-25T01:03:01;17.55;;;3.97;;
60243;SDS011;46106;51.468;5.814;2023-04-25T01:05:27;16.65;;;4.35;;
60243;SDS011;46106;51.468;5.814;2023-04-25T01:07:53;13.63;;;3.58;;
60243;SDS011;46106;51.468;5.814;2023-04-25T01:10:19;15.68;;;4.85;;
60243;SDS011;46106;51.468;5.814;2023-04-25T01:12:45;12.38;;;3.53;;
60243;SDS011;46106;51.468;5.814;2023-04-25T01:15:14;13.02;;;3.63;;
60243;SDS011;46106;51.468;5.814;2023-04-25T01:17:40;16.80;;;3.60;;
60243;SDS011;46106;51.468;5.814;2023-04-25T01:20:06;22.40;;;3.45;;
60243;SDS011;46106;51.468;5.814;2023-04-25T01:22:34;15.35;;;3.88;;
60243;SDS011;46106;51.468;5.814;2023-04-25T01:25:00;17.65;;;3.53;;
60243;SDS011;46106;51.468;5.814;2023-04-25T01:27:26;19.42;;;3.78;;
60243;SDS011;46106;51.468;5.814;2023-04-25T01:29:53;15.15;;;3.97;;
60243;SDS011;46106;51.468;5.814;2023-04-25T01:32:19;17.75;;;3.35;;
60243;SDS011;46106;51.468;5.814;2023-04-25T01:34:46;17.90;;;3.45;;
60243;SDS011;46106;51.468;5.814;2023-04-25T01:37:11;17.65;;;3.63;;
60243;SDS011;46106;51.468;5.814;2023-04-25T01:39:37;15.43;;;3.60;;
60243;SDS011;46106;51.468;5.814;2023-04-25T01:42:02;23.52;;;4.30;;
60243;SDS011;46106;51.468;5.814;2023-04-25T01:44:28;20.30;;;3.47;;
60243;SDS011;46106;51.468;5.814;2023-04-25T01:46:54;16.33;;;3.58;;
60243;SDS011;46106;51.468;5.814;2023-04-25T01:49:19;19.45;;;4.05;;
60243;SDS011;46106;51.468;5.814;2023-04-25T01:51:45;18.42;;;4.07;;
60243;SDS011;46106;51.468;5.814;2023-04-25T01:54:14;21.42;;;3.72;;
60243;SDS011;46106;51.468;5.814;2023-04-25T01:56:39;23.75;;;4.65;;
60243;SDS011;46106;51.468;5.814;2023-04-25T01:59:05;12.73;;;2.90;;
60243;SDS011;46106;51.468;5.814;2023-04-25T02:01:31;19.25;;;3.67;;
60243;SDS011;46106;51.468;5.814;2023-04-25T02:03:57;21.13;;;4.63;;
60243;SDS011;46106;51.468;5.814;2023-04-25T02:06:22;26.95;;;4.32;;
60243;SDS011;46106;51.468;5.814;2023-04-25T02:08:48;17.73;;;4.15;;
60243;SDS011;46106;51.468;5.814;2023-04-25T02:11:13;20.67;;;4.18;;
60243;SDS011;46106;51.468;5.814;2023-04-25T02:13:39;18.00;;;3.67;;
60243;SDS011;46106;51.468;5.814;2023-04-25T02:16:04;17.13;;;3.83;;
60243;SDS011;46106;51.468;5.814;2023-04-25T02:18:30;16.90;;;4.43;;
60243;SDS011;46106;51.468;5.814;2023-04-25T02:20:57;24.05;;;4.05;;
60243;SDS011;46106;51.468;5.814;2023-04-25T02:23:23;20.40;;;4.32;;
60243;SDS011;46106;51.468;5.814;2023-04-25T02:25:49;21.15;;;4.20;;
60243;SDS011;46106;51.468;5.814;2023-04-25T02:28:16;22.65;;;4.88;;
60243;SDS011;46106;51.468;5.814;2023-04-25T02:30:41;22.48;;;4.38;;
60243;SDS011;46106;51.468;5.814;2023-04-25T02:33:06;25.25;;;4.40;;
60243;SDS011;46106;51.468;5.814;2023-04-25T02:35:35;21.63;;;4.95;;
60243;SDS011;46106;51.468;5.814;2023-04-25T02:38:00;29.70;;;4.90;;
60243;SDS011;46106;51.468;5.814;2023-04-25T02:40:26;28.27;;;5.63;;
60243;SDS011;46106;51.468;5.814;2023-04-25T02:42:51;25.10;;;4.65;;
60243;SDS011;46106;51.468;5.814;2023-04-25T02:45:17;26.55;;;5.07;;
60243;SDS011;46106;51.468;5.814;2023-04-25T02:47:42;24.30;;;5.05;;
60243;SDS011;46106;51.468;5.814;2023-04-25T02:50:08;25.42;;;4.78;;
60243;SDS011;46106;51.468;5.814;2023-04-25T02:52:33;27.50;;;6.88;;
60243;SDS011;46106;51.468;5.814;2023-04-25T02:54:59;21.10;;;4.53;;
60243;SDS011;46106;51.468;5.814;2023-04-25T02:57:24;24.40;;;4.80;;
60243;SDS011;46106;51.468;5.814;2023-04-25T02:59:50;28.65;;;5.28;;
60243;SDS011;46106;51.468;5.814;2023-04-25T03:02:15;26.23;;;4.72;;
60243;SDS011;46106;51.468;5.814;2023-04-25T03:04:40;18.85;;;4.57;;
60243;SDS011;46106;51.468;5.814;2023-04-25T03:07:06;40.80;;;5.45;;
60243;SDS011;46106;51.468;5.814;2023-04-25T03:09:32;24.20;;;4.65;;
60243;SDS011;46106;51.468;5.814;2023-04-25T03:11:58;29.98;;;5.70;;
60243;SDS011;46106;51.468;5.814;2023-04-25T03:14:23;16.33;;;4.90;;
60243;SDS011;46106;51.468;5.814;2023-04-25T03:16:49;21.02;;;5.03;;
60243;SDS011;46106;51.468;5.814;2023-04-25T03:19:14;24.83;;;5.97;;
60243;SDS011;46106;51.468;5.814;2023-04-25T03:21:42;24.23;;;4.75;;
60243;SDS011;46106;51.468;5.814;2023-04-25T03:24:07;34.53;;;5.82;;
60243;SDS011;46106;51.468;5.814;2023-04-25T03:26:36;37.05;;;6.40;;
60243;SDS011;46106;51.468;5.814;2023-04-25T03:29:01;26.73;;;5.57;;
60243;SDS011;46106;51.468;5.814;2023-04-25T03:31:27;14.65;;;4.90;;
60243;SDS011;46106;51.468;5.814;2023-04-25T03:33:53;36.40;;;6.93;;
60243;SDS011;46106;51.468;5.814;2023-04-25T03:36:18;33.50;;;6.05;;
60243;SDS011;46106;51.468;5.814;2023-04-25T03:38:43;26.42;;;5.25;;
60243;SDS011;46106;51.468;5.814;2023-04-25T03:41:09;29.33;;;5.70;;
60243;SDS011;46106;51.468;5.814;2023-04-25T03:43:34;22.13;;;5.80;;
60243;SDS011;46106;51.468;5.814;2023-04-25T03:46:03;28.77;;;5.78;;
60243;SDS011;46106;51.468;5.814;2023-04-25T03:48:28;25.20;;;5.47;;
60243;SDS011;46106;51.468;5.814;2023-04-25T03:50:54;21.33;;;4.53;;
60243;SDS011;46106;51.468;5.814;2023-04-25T03:53:20;39.13;;;6.10;;
60243;SDS011;46106;51.468;5.814;2023-04-25T03:55:45;25.98;;;6.20;;
60243;SDS011;46106;51.468;5.814;2023-04-25T03:58:10;33.17;;;6.25;;
60243;SDS011;46106;51.468;5.814;2023-04-25T04:00:39;24.02;;;5.43;;
60243;SDS011;46106;51.468;5.814;2023-04-25T04:03:04;24.02;;;6.10;;
60243;SDS011;46106;51.468;5.814;2023-04-25T04:05:30;20.70;;;5.28;;
60243;SDS011;46106;51.468;5.814;2023-04-25T04:07:56;39.08;;;6.90;;
60243;SDS011;46106;51.468;5.814;2023-04-25T04:10:21;23.73;;;5.60;;
60243;SDS011;46106;51.468;5.814;2023-04-25T04:12:47;25.00;;;5.68;;
60243;SDS011;46106;51.468;5.814;2023-04-25T04:15:12;26.60;;;5.10;;
60243;SDS011;46106;51.468;5.814;2023-04-25T04:17:38;20.48;;;4.95;;
60243;SDS011;46106;51.468;5.814;2023-04-25T04:20:04;30.75;;;5.32;;
60243;SDS011;46106;51.468;5.814;2023-04-25T04:25:52;25.77;;;5.68;;
60243;SDS011;46106;51.468;5.814;2023-04-25T04:28:19;29.15;;;6.55;;
60243;SDS011;46106;51.468;5.814;2023-04-25T04:30:45;22.92;;;5.20;;
60243;SDS011;46106;51.468;5.814;2023-04-25T04:33:14;25.92;;;5.38;;
60243;SDS011;46106;51.468;5.814;2023-04-25T04:35:44;24.58;;;5.53;;
60243;SDS011;46106;51.468;5.814;2023-04-25T04:38:11;21.02;;;4.72;;
60243;SDS011;46106;51.468;5.814;2023-04-25T04:40:40;32.75;;;5.35;;
60243;SDS011;46106;51.468;5.814;2023-04-25T04:43:06;20.50;;;5.32;;
60243;SDS011;46106;51.468;5.814;2023-04-25T04:45:35;28.65;;;6.10;;
60243;SDS011;46106;51.468;5.814;2023-04-25T04:48:01;29.15;;;5.15;;
60243;SDS011;46106;51.468;5.814;2023-04-25T04:50:27;14.80;;;4.82;;
60243;SDS011;46106;51.468;5.814;2023-04-25T04:52:52;27.20;;;5.93;;
60243;SDS011;46106;51.468;5.814;2023-04-25T04:55:19;22.42;;;5.43;;
60243;SDS011;46106;51.468;5.814;2023-04-25T04:57:44;13.55;;;4.80;;
60243;SDS011;46106;51.468;5.814;2023-04-25T05:00:10;18.33;;;4.47;;
60243;SDS011;46106;51.468;5.814;2023-04-25T05:02:40;18.38;;;4.40;;
60243;SDS011;46106;51.468;5.814;2023-04-25T05:05:05;32.35;;;5.07;;
60243;SDS011;46106;51.468;5.814;2023-04-25T05:07:31;22.45;;;4.70;;
60243;SDS011;46106;51.468;5.814;2023-04-25T05:09:56;28.92;;;5.72;;
60243;SDS011;46106;51.468;5.814;2023-04-25T05:12:22;25.63;;;4.57;;
60243;SDS011;46106;51.468;5.814;2023-04-25T05:14:47;23.05;;;4.78;;
60243;SDS011;46106;51.468;5.814;2023-04-25T05:17:12;35.80;;;5.93;;
60243;SDS011;46106;51.468;5.814;2023-04-25T05:19:38;23.83;;;5.28;;
60243;SDS011;46106;51.468;5.814;2023-04-25T05:22:04;26.40;;;4.72;;
60243;SDS011;46106;51.468;5.814;2023-04-25T05:24:30;19.83;;;4.53;;
60243;SDS011;46106;51.468;5.814;2023-04-25T05:26:56;17.75;;;4.25;;
60243;SDS011;46106;51.468;5.814;2023-04-25T05:29:21;22.25;;;5.07;;
60243;SDS011;46106;51.468;5.814;2023-04-25T05:31:47;26.58;;;4.90;;
60243;SDS011;46106;51.468;5.814;2023-04-25T05:34:13;33.70;;;5.47;;
60243;SDS011;46106;51.468;5.814;2023-04-25T05:36:38;21.95;;;4.38;;
60243;SDS011;46106;51.468;5.814;2023-04-25T05:39:04;21.75;;;4.70;;
60243;SDS011;46106;51.468;5.814;2023-04-25T05:41:30;21.00;;;4.10;;
60243;SDS011;46106;51.468;5.814;2023-04-25T05:43:56;19.85;;;4.22;;
60243;SDS011;46106;51.468;5.814;2023-04-25T05:46:21;25.92;;;4.65;;
60243;SDS011;46106;51.468;5.814;2023-04-25T05:48:47;20.67;;;3.80;;
60243;SDS011;46106;51.468;5.814;2023-04-25T05:51:12;24.25;;;4.03;;
60243;SDS011;46106;51.468;5.814;2023-04-25T05:53:38;18.50;;;4.00;;
60243;SDS011;46106;51.468;5.814;2023-04-25T05:56:03;22.65;;;3.67;;
60243;SDS011;46106;51.468;5.814;2023-04-25T05:58:29;17.25;;;3.72;;
60243;SDS011;46106;51.468;5.814;2023-04-25T06:00:55;19.77;;;3.70;;
60243;SDS011;46106;51.468;5.814;2023-04-25T06:03:20;22.73;;;4.05;;
60243;SDS011;46106;51.468;5.814;2023-04-25T06:05:46;23.40;;;4.30;;
60243;SDS011;46106;51.468;5.814;2023-04-25T06:08:11;23.88;;;4.32;;
60243;SDS011;46106;51.468;5.814;2023-04-25T06:10:37;14.40;;;3.53;;
60243;SDS011;46106;51.468;5.814;2023-04-25T06:13:02;16.77;;;3.72;;
60243;SDS011;46106;51.468;5.814;2023-04-25T06:15:28;14.05;;;3.80;;
60243;SDS011;46106;51.468;5.814;2023-04-25T06:17:54;23.90;;;4.10;;
60243;SDS011;46106;51.468;5.814;2023-04-25T06:20:20;18.85;;;3.03;;
60243;SDS011;46106;51.468;5.814;2023-04-25T06:22:48;20.65;;;3.50;;
60243;SDS011;46106;51.468;5.814;2023-04-25T06:25:15;12.25;;;2.85;;
60243;SDS011;46106;51.468;5.814;2023-04-25T06:27:41;18.15;;;3.72;;
60243;SDS011;46106;51.468;5.814;2023-04-25T06:30:06;14.68;;;2.67;;
60243;SDS011;46106;51.468;5.814;2023-04-25T06:32:37;17.40;;;3.58;;
60243;SDS011;46106;51.468;5.814;2023-04-25T06:35:03;10.68;;;2.45;;
60243;SDS011;46106;51.468;5.814;2023-04-25T06:37:30;13.30;;;2.45;;
60243;SDS011;46106;51.468;5.814;2023-04-25T06:39:55;19.25;;;3.33;;
60243;SDS011;46106;51.468;5.814;2023-04-25T06:42:21;20.92;;;3.28;;
60243;SDS011;46106;51.468;5.814;2023-04-25T06:44:46;21.70;;;3.75;;
60243;SDS011;46106;51.468;5.814;2023-04-25T06:47:12;12.55;;;2.38;;
60243;SDS011;46106;51.468;5.814;2023-04-25T06:49:37;14.93;;;2.80;;
60243;SDS011;46106;51.468;5.814;2023-04-25T06:52:03;15.32;;;2.60;;
60243;SDS011;46106;51.468;5.814;2023-04-25T06:54:28;14.48;;;2.22;;
60243;SDS011;46106;51.468;5.814;2023-04-25T06:56:55;14.32;;;2.63;;
60243;SDS011;46106;51.468;5.814;2023-04-25T06:59:21;11.25;;;1.92;;
60243;SDS011;46106;51.468;5.814;2023-04-25T07:01:46;13.95;;;2.28;;
60243;SDS011;46106;51.468;5.814;2023-04-25T07:04:12;21.02;;;2.08;;
60243;SDS011;46106;51.468;5.814;2023-04-25T07:06:37;21.65;;;3.20;;
60243;SDS011;46106;51.468;5.814;2023-04-25T07:09:08;8.43;;;2.67;;
60243;SDS011;46106;51.468;5.814;2023-04-25T07:11:35;16.67;;;2.40;;
60243;SDS011;46106;51.468;5.814;2023-04-25T07:14:00;18.00;;;3.00;;
60243;SDS011;46106;51.468;5.814;2023-04-25T07:16:26;12.25;;;2.10;;
60243;SDS011;46106;51.468;5.814;2023-04-25T07:18:51;21.20;;;2.45;;
60243;SDS011;46106;51.468;5.814;2023-04-25T07:21:17;10.18;;;2.35;;
60243;SDS011;46106;51.468;5.814;2023-04-25T07:23:42;10.15;;;1.63;;
60243;SDS011;46106;51.468;5.814;2023-04-25T07:26:08;11.88;;;1.73;;
60243;SDS011;46106;51.468;5.814;2023-04-25T07:28:33;6.65;;;1.38;;
60243;SDS011;46106;51.468;5.814;2023-04-25T07:30:59;10.48;;;2.50;;
60243;SDS011;46106;51.468;5.814;2023-04-25T07:33:24;10.45;;;1.88;;
60243;SDS011;46106;51.468;5.814;2023-04-25T07:35:50;14.60;;;1.95;;
60243;SDS011;46106;51.468;5.814;2023-04-25T07:38:15;11.07;;;1.73;;
60243;SDS011;46106;51.468;5.814;2023-04-25T07:40:41;13.05;;;2.13;;
60243;SDS011;46106;51.468;5.814;2023-04-25T07:43:06;8.35;;;1.73;;
60243;SDS011;46106;51.468;5.814;2023-04-25T07:45:37;16.98;;;3.42;;
60243;SDS011;46106;51.468;5.814;2023-04-25T07:48:02;17.95;;;2.33;;
60243;SDS011;46106;51.468;5.814;2023-04-25T07:50:28;10.80;;;2.38;;
60243;SDS011;46106;51.468;5.814;2023-04-25T07:52:53;9.52;;;2.08;;
60243;SDS011;46106;51.468;5.814;2023-04-25T07:55:19;12.18;;;1.42;;
60243;SDS011;46106;51.468;5.814;2023-04-25T07:57:44;10.50;;;1.85;;
60243;SDS011;46106;51.468;5.814;2023-04-25T08:00:10;7.85;;;1.70;;
60243;SDS011;46106;51.468;5.814;2023-04-25T08:02:36;11.48;;;2.28;;
60243;SDS011;46106;51.468;5.814;2023-04-25T08:05:02;9.93;;;1.88;;
60243;SDS011;46106;51.468;5.814;2023-04-25T08:07:28;15.45;;;1.85;;
60243;SDS011;46106;51.468;5.814;2023-04-25T08:09:54;12.38;;;1.80;;
60243;SDS011;46106;51.468;5.814;2023-04-25T08:12:20;9.52;;;1.40;;
60243;SDS011;46106;51.468;5.814;2023-04-25T08:14:45;11.35;;;1.80;;
60243;SDS011;46106;51.468;5.814;2023-04-25T08:17:11;12.52;;;2.00;;
60243;SDS011;46106;51.468;5.814;2023-04-25T08:19:39;12.38;;;2.00;;
60243;SDS011;46106;51.468;5.814;2023-04-25T08:22:04;9.55;;;1.50;;
60243;SDS011;46106;51.468;5.814;2023-04-25T08:24:30;15.02;;;1.73;;
60243;SDS011;46106;51.468;5.814;2023-04-25T08:26:55;8.73;;;1.75;;
60243;SDS011;46106;51.468;5.814;2023-04-25T08:29:21;11.70;;;1.50;;
60243;SDS011;46106;51.468;5.814;2023-04-25T08:31:48;15.30;;;2.20;;
60243;SDS011;46106;51.468;5.814;2023-04-25T08:34:13;8.18;;;2.08;;
60243;SDS011;46106;51.468;5.814;2023-04-25T08:36:39;13.60;;;1.77;;
60243;SDS011;46106;51.468;5.814;2023-04-25T08:39:04;20.90;;;2.10;;
60243;SDS011;46106;51.468;5.814;2023-04-25T08:41:30;11.85;;;2.17;;
60243;SDS011;46106;51.468;5.814;2023-04-25T08:43:56;14.20;;;2.33;;
60243;SDS011;46106;51.468;5.814;2023-04-25T08:46:28;7.78;;;1.70;;
60243;SDS011;46106;51.468;5.814;2023-04-25T08:48:57;19.77;;;2.33;;
60243;SDS011;46106;51.468;5.814;2023-04-25T08:51:26;17.23;;;2.58;;
60243;SDS011;46106;51.468;5.814;2023-04-25T08:53:55;10.70;;;2.22;;
60243;SDS011;46106;51.468;5.814;2023-04-25T08:56:24;10.38;;;1.38;;
60243;SDS011;46106;51.468;5.814;2023-04-25T08:58:50;13.75;;;1.70;;
60243;SDS011;46106;51.468;5.814;2023-04-25T09:01:16;12.68;;;1.90;;
60243;SDS011;46106;51.468;5.814;2023-04-25T09:03:43;12.13;;;1.63;;
60243;SDS011;46106;51.468;5.814;2023-04-25T09:06:13;10.40;;;1.58;;
60243;SDS011;46106;51.468;5.814;2023-04-25T09:08:39;9.63;;;1.45;;
60243;SDS011;46106;51.468;5.814;2023-04-25T09:11:06;9.88;;;1.30;;
60243;SDS011;46106;51.468;5.814;2023-04-25T09:13:32;11.73;;;1.38;;
60243;SDS011;46106;51.468;5.814;2023-04-25T09:15:58;8.07;;;1.63;;
60243;SDS011;46106;51.468;5.814;2023-04-25T09:18:24;11.77;;;1.08;;
60243;SDS011;46106;51.468;5.814;2023-04-25T09:20:51;9.73;;;1.23;;
60243;SDS011;46106;51.468;5.814;2023-04-25T09:23:19;7.35;;;1.20;;
60243;SDS011;46106;51.468;5.814;2023-04-25T09:25:49;7.70;;;0.82;;
60243;SDS011;46106;51.468;5.814;2023-04-25T09:28:16;11.18;;;1.50;;
60243;SDS011;46106;51.468;5.814;2023-04-25T09:30:47;14.40;;;1.60;;
60243;SDS011;46106;51.468;5.814;2023-04-25T09:33:13;16.33;;;1.52;;
60243;SDS011;46106;51.468;5.814;2023-04-25T09:35:47;8.88;;;1.17;;
60243;SDS011;46106;51.468;5.814;2023-04-25T09:38:18;8.18;;;1.50;;
60243;SDS011;46106;51.468;5.814;2023-04-25T09:40:44;12.02;;;1.42;;
60243;SDS011;46106;51.468;5.814;2023-04-25T09:43:18;7.15;;;1.10;;
60243;SDS011;46106;51.468;5.814;2023-04-25T09:48:21;13.25;;;1.48;;
60243;SDS011;46106;51.468;5.814;2023-04-25T09:53:33;10.77;;;1.90;;
60243;SDS011;46106;51.468;5.814;2023-04-25T09:56:00;10.30;;;1.20;;
60243;SDS011;46106;51.468;5.814;2023-04-25T09:58:30;10.27;;;1.30;;
60243;SDS011;46106;51.468;5.814;2023-04-25T10:00:57;9.68;;;1.60;;
60243;SDS011;46106;51.468;5.814;2023-04-25T10:03:32;6.93;;;1.33;;
60243;SDS011;46106;51.468;5.814;2023-04-25T10:06:00;9.27;;;1.30;;
60243;SDS011;46106;51.468;5.814;2023-04-25T10:08:34;8.15;;;1.13;;
60243;SDS011;46106;51.468;5.814;2023-04-25T10:11:02;3.65;;;1.13;;
60243;SDS011;46106;51.468;5.814;2023-04-25T10:13:30;5.45;;;1.08;;
60243;SDS011;46106;51.468;5.814;2023-04-25T10:16:00;7.25;;;1.00;;
60243;SDS011;46106;51.468;5.814;2023-04-25T10:18:30;5.43;;;1.00;;
60243;SDS011;46106;51.468;5.814;2023-04-25T10:21:01;3.08;;;0.88;;
60243;SDS011;46106;51.468;5.814;2023-04-25T10:23:30;6.35;;;0.93;;
60243;SDS011;46106;51.468;5.814;2023-04-25T10:25:56;5.25;;;1.40;;
60243;SDS011;46106;51.468;5.814;2023-04-25T10:28:23;1.35;;;0.70;;
60243;SDS011;46106;51.468;5.814;2023-04-25T10:33:34;2.67;;;0.93;;
60243;SDS011;46106;51.468;5.814;2023-04-25T10:36:20;9.35;;;3.22;;
60243;SDS011;46106;51.468;5.814;2023-04-25T10:38:47;7.28;;;1.00;;
60243;SDS011;46106;51.468;5.814;2023-04-25T10:41:17;4.85;;;0.90;;
60243;SDS011;46106;51.468;5.814;2023-04-25T10:43:44;2.70;;;1.02;;
60243;SDS011;46106;51.468;5.814;2023-04-25T10:46:27;3.10;;;0.90;;
60243;SDS011;46106;51.468;5.814;2023-04-25T10:48:56;2.75;;;1.00;;
60243;SDS011;46106;51.468;5.814;2023-04-25T10:51:32;0.68;;;0.50;;
60243;SDS011;46106;51.468;5.814;2023-04-25T10:59:10;5.05;;;0.63;;
60243;SDS011;46106;51.468;5.814;2023-04-25T11:01:44;4.50;;;0.80;;
60243;SDS011;46106;51.468;5.814;2023-04-25T11:04:22;1.58;;;0.68;;
60243;SDS011;46106;51.468;5.814;2023-04-25T11:09:23;5.72;;;0.63;;
60243;SDS011;46106;51.468;5.814;2023-04-25T11:11:55;6.25;;;1.38;;
60243;SDS011;46106;51.468;5.814;2023-04-25T11:14:23;5.95;;;0.93;;
60243;SDS011;46106;51.468;5.814;2023-04-25T11:16:55;2.72;;;0.75;;
60243;SDS011;46106;51.468;5.814;2023-04-25T11:21:47;4.15;;;0.90;;
60243;SDS011;46106;51.468;5.814;2023-04-25T11:24:12;2.53;;;0.75;;
60243;SDS011;46106;51.468;5.814;2023-04-25T11:26:38;3.75;;;1.10;;
60243;SDS011;46106;51.468;5.814;2023-04-25T11:29:06;4.95;;;1.00;;
60243;SDS011;46106;51.468;5.814;2023-04-25T11:31:31;10.23;;;1.08;;
60243;SDS011;46106;51.468;5.814;2023-04-25T11:33:57;6.65;;;1.20;;
60243;SDS011;46106;51.468;5.814;2023-04-25T11:36:23;2.67;;;1.20;;
60243;SDS011;46106;51.468;5.814;2023-04-25T11:38:50;5.32;;;1.17;;
60243;SDS011;46106;51.468;5.814;2023-04-25T11:41:17;9.23;;;1.00;;
60243;SDS011;46106;51.468;5.814;2023-04-25T11:43:47;10.07;;;1.42;;
60243;SDS011;46106;51.468;5.814;2023-04-25T11:46:13;10.20;;;3.67;;
60243;SDS011;46106;51.468;5.814;2023-04-25T11:48:39;10.50;;;1.67;;
60243;SDS011;46106;51.468;5.814;2023-04-25T11:51:06;8.20;;;1.05;;
60243;SDS011;46106;51.468;5.814;2023-04-25T11:53:35;6.20;;;1.10;;
60243;SDS011;46106;51.468;5.814;2023-04-25T11:56:01;2.97;;;0.98;;
60243;SDS011;46106;51.468;5.814;2023-04-25T11:58:26;7.03;;;0.93;;
60243;SDS011;46106;51.468;5.814;2023-04-25T12:00:52;5.28;;;1.50;;
60243;SDS011;46106;51.468;5.814;2023-04-25T12:03:18;10.05;;;1.10;;
60243;SDS011;46106;51.468;5.814;2023-04-25T12:05:44;9.20;;;1.20;;
60243;SDS011;46106;51.468;5.814;2023-04-25T12:08:11;7.43;;;1.27;;
60243;SDS011;46106;51.468;5.814;2023-04-25T12:10:40;9.45;;;1.40;;
60243;SDS011;46106;51.468;5.814;2023-04-25T12:13:20;9.20;;;1.25;;
60243;SDS011;46106;51.468;5.814;2023-04-25T12:15:50;5.47;;;1.17;;
60243;SDS011;46106;51.468;5.814;2023-04-25T12:18:19;4.75;;;1.23;;
60243;SDS011;46106;51.468;5.814;2023-04-25T12:20:46;5.78;;;1.50;;
60243;SDS011;46106;51.468;5.814;2023-04-25T12:23:11;12.35;;;1.92;;
60243;SDS011;46106;51.468;5.814;2023-04-25T12:28:36;5.07;;;1.23;;
60243;SDS011;46106;51.468;5.814;2023-04-25T12:33:39;7.13;;;1.00;;
60243;SDS011;46106;51.468;5.814;2023-04-25T12:36:05;9.00;;;1.30;;
60243;SDS011;46106;51.468;5.814;2023-04-25T12:38:41;6.45;;;1.08;;
60243;SDS011;46106;51.468;5.814;2023-04-25T12:41:08;8.27;;;1.13;;
60243;SDS011;46106;51.468;5.814;2023-04-25T12:43:33;2.63;;;0.77;;
60243;SDS011;46106;51.468;5.814;2023-04-25T12:45:59;7.30;;;0.70;;
60243;SDS011;46106;51.468;5.814;2023-04-25T12:48:28;10.75;;;1.52;;
60243;SDS011;46106;51.468;5.814;2023-04-25T12:50:53;2.42;;;0.80;;
60243;SDS011;46106;51.468;5.814;2023-04-25T12:53:19;4.55;;;0.90;;
60243;SDS011;46106;51.468;5.814;2023-04-25T12:55:46;4.53;;;0.80;;
60243;SDS011;46106;51.468;5.814;2023-04-25T12:58:12;2.38;;;0.70;;
60243;SDS011;46106;51.468;5.814;2023-04-25T13:00:38;2.78;;;0.80;;
60243;SDS011;46106;51.468;5.814;2023-04-25T13:03:04;2.17;;;0.68;;
60243;SDS011;46106;51.468;5.814;2023-04-25T13:05:30;4.00;;;0.70;;
60243;SDS011;46106;51.468;5.814;2023-04-25T13:07:55;5.90;;;0.88;;
60243;SDS011;46106;51.468;5.814;2023-04-25T13:10:21;3.45;;;0.73;;
60243;SDS011;46106;51.468;5.814;2023-04-25T13:12:47;2.22;;;0.60;;
60243;SDS011;46106;51.468;5.814;2023-04-25T13:15:12;2.67;;;0.60;;
60243;SDS011;46106;51.468;5.814;2023-04-25T13:17:38;5.85;;;0.50;;
60243;SDS011;46106;51.468;5.814;2023-04-25T13:20:06;3.63;;;0.60;;
60243;SDS011;46106;51.468;5.814;2023-04-25T13:22:37;2.30;;;0.43;;
60243;SDS011;46106;51.468;5.814;2023-04-25T13:25:04;1.98;;;0.50;;
60243;SDS011;46106;51.468;5.814;2023-04-25T13:27:31;2.92;;;0.73;;
60243;SDS011;46106;51.468;5.814;2023-04-25T13:29:59;3.53;;;0.77;;
60243;SDS011;46106;51.468;5.814;2023-04-25T13:32:27;4.28;;;0.70;;
60243;SDS011;46106;51.468;5.814;2023-04-25T13:34:53;4.88;;;1.20;;
60243;SDS011;46106;51.468;5.814;2023-04-25T13:37:18;7.03;;;1.17;;
60243;SDS011;46106;51.468;5.814;2023-04-25T13:39:44;7.78;;;1.75;;
60243;SDS011;46106;51.468;5.814;2023-04-25T13:42:09;6.28;;;1.27;;
60243;SDS011;46106;51.468;5.814;2023-04-25T13:44:36;8.82;;;1.52;;
60243;SDS011;46106;51.468;5.814;2023-04-25T13:47:01;3.33;;;1.00;;
60243;SDS011;46106;51.468;5.814;2023-04-25T13:49:28;9.35;;;1.20;;
60243;SDS011;46106;51.468;5.814;2023-04-25T13:51:53;7.20;;;0.90;;
60243;SDS011;46106;51.468;5.814;2023-04-25T13:54:18;9.00;;;1.17;;
60243;SDS011;46106;51.468;5.814;2023-04-25T13:56:44;4.28;;;0.90;;
60243;SDS011;46106;51.468;5.814;2023-04-25T13:59:10;5.35;;;1.02;;
60243;SDS011;46106;51.468;5.814;2023-04-25T14:01:36;6.28;;;0.95;;
60243;SDS011;46106;51.468;5.814;2023-04-25T14:04:02;7.60;;;1.50;;
60243;SDS011;46106;51.468;5.814;2023-04-25T14:06:31;5.63;;;1.45;;
60243;SDS011;46106;51.468;5.814;2023-04-25T14:08:57;5.82;;;1.63;;
60243;SDS011;46106;51.468;5.814;2023-04-25T14:11:22;4.25;;;1.00;;
60243;SDS011;46106;51.468;5.814;2023-04-25T14:13:47;4.60;;;1.00;;
60243;SDS011;46106;51.468;5.814;2023-04-25T14:16:14;3.25;;;0.80;;
60243;SDS011;46106;51.468;5.814;2023-04-25T14:18:40;6.63;;;1.25;;
60243;SDS011;46106;51.468;5.814;2023-04-25T14:21:06;3.05;;;0.80;;
60243;SDS011;46106;51.468;5.814;2023-04-25T14:23:31;9.13;;;1.35;;
60243;SDS011;46106;51.468;5.814;2023-04-25T14:25:57;7.50;;;1.50;;
60243;SDS011;46106;51.468;5.814;2023-04-25T14:28:22;4.30;;;1.30;;
60243;SDS011;46106;51.468;5.814;2023-04-25T14:30:48;4.95;;;0.95;;
60243;SDS011;46106;51.468;5.814;2023-04-25T14:33:13;7.90;;;1.45;;
60243;SDS011;46106;51.468;5.814;2023-04-25T14:35:39;4.63;;;1.17;;
60243;SDS011;46106;51.468;5.814;2023-04-25T14:38:05;6.53;;;1.00;;
60243;SDS011;46106;51.468;5.814;2023-04-25T14:40:30;8.60;;;1.17;;
60243;SDS011;46106;51.468;5.814;2023-04-25T14:42:55;6.53;;;1.02;;
60243;SDS011;46106;51.468;5.814;2023-04-25T14:45:21;10.38;;;2.15;;
60243;SDS011;46106;51.468;5.814;2023-04-25T14:47:47;3.55;;;1.20;;
60243;SDS011;46106;51.468;5.814;2023-04-25T14:50:12;2.72;;;0.88;;
60243;SDS011;46106;51.468;5.814;2023-04-25T14:52:38;6.15;;;0.75;;
60243;SDS011;46106;51.468;5.814;2023-04-25T14:55:03;8.10;;;1.08;;
60243;SDS011;46106;51.468;5.814;2023-04-25T14:57:39;11.40;;;1.00;;
60243;SDS011;46106;51.468;5.814;2023-04-25T15:00:04;5.15;;;0.88;;
60243;SDS011;46106;51.468;5.814;2023-04-25T15:02:34;2.72;;;0.75;;